createdAt,value
2018-12-10T00:00:58.602Z,1003.41
2018-12-10T00:01:58.583Z,1003.37
2018-12-10T00:02:58.559Z,1003.42
2018-12-10T00:03:58.540Z,1003.44
2018-12-10T00:04:58.519Z,1003.48
2018-12-10T00:05:58.495Z,1003.50
2018-12-10T00:06:58.472Z,1003.50
2018-12-10T00:07:58.453Z,1003.48
2018-12-10T00:08:58.436Z,1003.52
2018-12-10T00:09:58.412Z,1003.52
2018-12-10T00:10:58.392Z,1003.54
2018-12-10T00:11:58.369Z,1003.59
2018-12-10T00:12:58.351Z,1003.59
2018-12-10T00:13:58.327Z,1003.62
2018-12-10T00:14:58.305Z,1003.61
2018-12-10T00:15:58.283Z,1003.62
2018-12-10T00:16:58.267Z,1003.65
2018-12-10T00:17:58.247Z,1003.71
2018-12-10T00:18:58.222Z,1003.65
2018-12-10T00:19:58.207Z,1003.65
2018-12-10T00:20:58.185Z,1003.69
2018-12-10T00:21:58.161Z,1003.71
2018-12-10T00:22:58.135Z,1003.74
2018-12-10T00:23:58.117Z,1003.79
2018-12-10T00:24:58.103Z,1003.78
2018-12-10T00:25:58.076Z,1003.73
2018-12-10T00:26:58.056Z,1003.79
2018-12-10T00:27:58.033Z,1003.79
2018-12-10T00:28:58.016Z,1003.72
2018-12-10T00:29:57.994Z,1003.74
2018-12-10T00:30:57.971Z,1003.75
2018-12-10T00:31:57.952Z,1003.78
2018-12-10T00:32:57.932Z,1003.79
2018-12-10T00:33:57.916Z,1003.79
2018-12-10T00:34:57.890Z,1003.82
2018-12-10T00:35:57.870Z,1003.85
2018-12-10T00:36:57.849Z,1003.81
2018-12-10T00:37:57.830Z,1003.88
2018-12-10T00:38:57.809Z,1003.91
2018-12-10T00:39:57.789Z,1003.90
2018-12-10T00:40:57.765Z,1003.95
2018-12-10T00:41:57.745Z,1004.02
2018-12-10T00:42:57.724Z,1003.96
2018-12-10T00:43:57.705Z,1004.06
2018-12-10T00:44:57.683Z,1003.97
2018-12-10T00:45:57.665Z,1003.97
2018-12-10T00:46:57.641Z,1004.02
2018-12-10T00:47:57.661Z,1004.05
2018-12-10T00:48:57.604Z,1003.96
2018-12-10T00:49:57.582Z,1004.02
2018-12-10T00:50:57.560Z,1004.03
2018-12-10T00:51:57.536Z,1004.06
2018-12-10T00:52:57.519Z,1004.08
2018-12-10T00:53:57.495Z,1004.07
2018-12-10T00:54:57.475Z,1004.10
2018-12-10T00:55:57.451Z,1004.11
2018-12-10T00:56:57.434Z,1004.11
2018-12-10T00:57:57.414Z,1004.12
2018-12-10T00:58:57.391Z,1004.10
2018-12-10T00:59:57.377Z,1004.10
2018-12-10T01:00:57.353Z,1004.14
2018-12-10T01:01:57.332Z,1004.18
2018-12-10T01:02:57.307Z,1004.16
2018-12-10T01:03:57.290Z,1004.14
2018-12-10T01:04:57.268Z,1004.15
2018-12-10T01:05:57.248Z,1004.15
2018-12-10T01:06:58.848Z,1004.12
2018-12-10T01:07:57.208Z,1004.12
2018-12-10T01:08:57.186Z,1004.16
2018-12-10T01:09:57.164Z,1004.14
2018-12-10T01:10:57.140Z,1004.11
2018-12-10T01:11:57.124Z,1004.13
2018-12-10T01:12:57.100Z,1004.18
2018-12-10T01:13:57.086Z,1004.24
2018-12-10T01:14:57.063Z,1004.22
2018-12-10T01:15:57.037Z,1004.26
2018-12-10T01:16:57.016Z,1004.27
2018-12-10T01:17:56.997Z,1004.31
2018-12-10T01:18:56.977Z,1004.33
2018-12-10T01:19:56.958Z,1004.31
2018-12-10T01:20:56.943Z,1004.32
2018-12-10T01:21:56.917Z,1004.36
2018-12-10T01:22:56.893Z,1004.41
2018-12-10T01:23:56.873Z,1004.38
2018-12-10T01:24:56.853Z,1004.45
2018-12-10T01:25:56.831Z,1004.50
2018-12-10T01:26:56.810Z,1004.44
2018-12-10T01:27:56.787Z,1004.49
2018-12-10T01:28:56.770Z,1004.51
2018-12-10T01:29:56.743Z,1004.57
2018-12-10T01:30:56.725Z,1004.47
2018-12-10T01:31:56.705Z,1004.54
2018-12-10T01:32:56.682Z,1004.54
2018-12-10T01:33:56.663Z,1004.55
2018-12-10T01:34:56.640Z,1004.56
2018-12-10T01:35:56.620Z,1004.58
2018-12-10T01:36:56.599Z,1004.58
2018-12-10T01:37:56.581Z,1004.59
2018-12-10T01:38:56.559Z,1004.58
2018-12-10T01:39:56.537Z,1004.61
2018-12-10T01:40:56.518Z,1004.61
2018-12-10T01:41:56.499Z,1004.64
2018-12-10T01:42:56.474Z,1004.67
2018-12-10T01:43:56.453Z,1004.73
2018-12-10T01:44:56.433Z,1004.72
2018-12-10T01:45:56.412Z,1004.72
2018-12-10T01:46:56.391Z,1004.85
2018-12-10T01:47:56.368Z,1004.79
2018-12-10T01:48:56.352Z,1004.81
2018-12-10T01:49:56.332Z,1004.83
2018-12-10T01:50:56.307Z,1004.79
2018-12-10T01:51:56.289Z,1004.80
2018-12-10T01:52:56.266Z,1004.94
2018-12-10T01:53:56.246Z,1004.93
2018-12-10T01:54:56.223Z,1004.89
2018-12-10T01:55:56.203Z,1004.92
2018-12-10T01:56:56.185Z,1004.91
2018-12-10T01:57:56.162Z,1004.96
2018-12-10T01:58:56.140Z,1005.00
2018-12-10T01:59:56.122Z,1005.02
2018-12-10T02:00:56.101Z,1005.00
2018-12-10T02:01:56.077Z,1005.03
2018-12-10T02:02:56.057Z,1005.06
2018-12-10T02:03:56.040Z,1005.11
2018-12-10T02:04:56.018Z,1005.15
2018-12-10T02:05:55.994Z,1005.08
2018-12-10T02:06:55.977Z,1005.08
2018-12-10T02:07:55.953Z,1005.07
2018-12-10T02:08:55.935Z,1005.07
2018-12-10T02:09:55.914Z,1005.04
2018-12-10T02:10:55.893Z,1005.11
2018-12-10T02:11:55.870Z,1005.14
2018-12-10T02:12:55.850Z,1005.11
2018-12-10T02:13:55.826Z,1005.14
2018-12-10T02:14:55.808Z,1005.13
2018-12-10T02:15:55.787Z,1005.20
2018-12-10T02:16:55.766Z,1005.15
2018-12-10T02:17:55.749Z,1005.14
2018-12-10T02:18:55.726Z,1005.15
2018-12-10T02:19:55.708Z,1005.17
2018-12-10T02:20:55.687Z,1005.17
2018-12-10T02:21:55.661Z,1005.16
2018-12-10T02:22:55.641Z,1005.20
2018-12-10T02:23:55.622Z,1005.23
2018-12-10T02:24:55.597Z,1005.23
2018-12-10T02:25:55.578Z,1005.22
2018-12-10T02:26:55.558Z,1005.22
2018-12-10T02:27:55.540Z,1005.18
2018-12-10T02:28:55.521Z,1005.23
2018-12-10T02:29:55.497Z,1005.23
2018-12-10T02:30:55.474Z,1005.10
2018-12-10T02:31:55.452Z,1005.18
2018-12-10T02:32:55.572Z,1005.18
2018-12-10T02:33:55.409Z,1005.18
2018-12-10T02:34:55.389Z,1005.25
2018-12-10T02:35:55.370Z,1005.25
2018-12-10T02:36:55.347Z,1005.24
2018-12-10T02:37:55.322Z,1005.27
2018-12-10T02:38:55.308Z,1005.26
2018-12-10T02:39:55.294Z,1005.32
2018-12-10T02:40:55.267Z,1005.27
2018-12-10T02:41:55.242Z,1005.26
2018-12-10T02:42:55.222Z,1005.29
2018-12-10T02:43:55.202Z,1005.31
2018-12-10T02:44:55.182Z,1005.31
2018-12-10T02:45:55.158Z,1005.39
2018-12-10T02:46:55.136Z,1005.38
2018-12-10T02:47:55.115Z,1005.37
2018-12-10T02:48:55.099Z,1005.41
2018-12-10T02:49:55.077Z,1005.42
2018-12-10T02:50:55.055Z,1005.31
2018-12-10T02:51:55.060Z,1005.31
2018-12-10T02:52:55.010Z,1005.34
2018-12-10T02:53:54.988Z,1005.39
2018-12-10T02:54:54.983Z,1005.43
2018-12-10T02:55:54.949Z,1005.39
2018-12-10T02:56:54.925Z,1005.41
2018-12-10T02:57:54.905Z,1005.44
2018-12-10T02:58:54.884Z,1005.43
2018-12-10T02:59:54.865Z,1005.45
2018-12-10T03:00:54.846Z,1005.45
2018-12-10T03:01:54.818Z,1005.47
2018-12-10T03:02:54.798Z,1005.45
2018-12-10T03:03:54.775Z,1005.47
2018-12-10T03:04:54.773Z,1005.44
2018-12-10T03:05:54.736Z,1005.48
2018-12-10T03:06:54.714Z,1005.44
2018-12-10T03:07:54.693Z,1005.47
2018-12-10T03:08:54.679Z,1005.48
2018-12-10T03:09:54.651Z,1005.51
2018-12-10T03:10:54.630Z,1005.51
2018-12-10T03:11:54.610Z,1005.53
2018-12-10T03:12:54.587Z,1005.48
2018-12-10T03:13:54.566Z,1005.52
2018-12-10T03:14:54.548Z,1005.52
2018-12-10T03:15:54.524Z,1005.52
2018-12-10T03:16:54.506Z,1005.51
2018-12-10T03:17:54.483Z,1005.56
2018-12-10T03:18:54.462Z,1005.57
2018-12-10T03:19:54.441Z,1005.65
2018-12-10T03:20:54.420Z,1005.62
2018-12-10T03:21:54.398Z,1005.68
2018-12-10T03:22:54.378Z,1005.70
2018-12-10T03:23:54.357Z,1005.73
2018-12-10T03:24:54.335Z,1005.70
2018-12-10T03:25:54.321Z,1005.75
2018-12-10T03:26:54.294Z,1005.74
2018-12-10T03:27:54.272Z,1005.72
2018-12-10T03:28:54.249Z,1005.79
2018-12-10T03:29:54.227Z,1005.78
2018-12-10T03:30:54.221Z,1005.83
2018-12-10T03:31:54.197Z,1005.80
2018-12-10T03:32:54.168Z,1005.80
2018-12-10T03:33:54.142Z,1005.81
2018-12-10T03:34:54.121Z,1005.85
2018-12-10T03:35:54.100Z,1005.89
2018-12-10T03:36:54.079Z,1005.87
2018-12-10T03:37:54.053Z,1005.92
2018-12-10T03:38:54.046Z,1005.98
2018-12-10T03:39:54.015Z,1005.89
2018-12-10T03:40:53.999Z,1005.93
2018-12-10T03:41:53.975Z,1005.97
2018-12-10T03:42:53.952Z,1005.93
2018-12-10T03:43:53.932Z,1005.96
2018-12-10T03:44:53.909Z,1005.93
2018-12-10T03:45:53.891Z,1005.99
2018-12-10T03:46:53.871Z,1005.98
2018-12-10T03:47:53.846Z,1006.02
2018-12-10T03:48:53.827Z,1006.00
2018-12-10T03:49:53.810Z,1006.06
2018-12-10T03:50:53.782Z,1006.04
2018-12-10T03:51:53.755Z,1006.04
2018-12-10T03:52:53.739Z,1005.99
2018-12-10T03:53:53.720Z,1006.04
2018-12-10T03:54:53.698Z,1006.04
2018-12-10T03:55:53.680Z,1006.02
2018-12-10T03:56:53.661Z,1006.03
2018-12-10T03:57:53.637Z,1005.98
2018-12-10T03:58:53.615Z,1006.08
2018-12-10T03:59:53.595Z,1006.06
2018-12-10T04:00:53.574Z,1006.09
2018-12-10T04:01:53.551Z,1006.00
2018-12-10T04:02:53.533Z,1006.05
2018-12-10T04:03:53.511Z,1006.08
2018-12-10T04:04:53.493Z,1006.12
2018-12-10T04:05:53.468Z,1006.11
2018-12-10T04:06:53.446Z,1006.14
2018-12-10T04:07:53.429Z,1006.16
2018-12-10T04:08:53.406Z,1006.15
2018-12-10T04:09:53.383Z,1006.12
2018-12-10T04:10:53.362Z,1006.18
2018-12-10T04:11:53.342Z,1006.17
2018-12-10T04:12:53.322Z,1006.15
2018-12-10T04:13:53.307Z,1006.15
2018-12-10T04:14:53.278Z,1006.13
2018-12-10T04:15:53.263Z,1006.11
2018-12-10T04:16:53.238Z,1006.15
2018-12-10T04:17:53.214Z,1006.16
2018-12-10T04:18:53.194Z,1006.13
2018-12-10T04:19:53.176Z,1006.21
2018-12-10T04:20:53.156Z,1006.25
2018-12-10T04:21:53.130Z,1006.16
2018-12-10T04:22:53.108Z,1006.20
2018-12-10T04:23:53.090Z,1006.20
2018-12-10T04:24:53.071Z,1006.19
2018-12-10T04:25:53.047Z,1006.16
2018-12-10T04:26:53.028Z,1006.19
2018-12-10T04:27:53.004Z,1006.22
2018-12-10T04:28:52.988Z,1006.23
2018-12-10T04:29:52.959Z,1006.19
2018-12-10T04:30:52.938Z,1006.25
2018-12-10T04:31:52.922Z,1006.22
2018-12-10T04:32:52.896Z,1006.17
2018-12-10T04:33:52.871Z,1006.19
2018-12-10T04:34:52.850Z,1006.21
2018-12-10T04:35:52.836Z,1006.16
2018-12-10T04:36:52.810Z,1006.23
2018-12-10T04:37:52.798Z,1006.16
2018-12-10T04:38:52.767Z,1006.29
2018-12-10T04:39:52.747Z,1006.23
2018-12-10T04:40:52.726Z,1006.21
2018-12-10T04:41:52.705Z,1006.24
2018-12-10T04:42:52.685Z,1006.18
2018-12-10T04:43:52.662Z,1006.23
2018-12-10T04:44:52.645Z,1006.26
2018-12-10T04:45:52.619Z,1006.25
2018-12-10T04:46:52.600Z,1006.29
2018-12-10T04:47:52.578Z,1006.28
2018-12-10T04:48:52.556Z,1006.35
2018-12-10T04:49:52.537Z,1006.39
2018-12-10T04:50:52.515Z,1006.39
2018-12-10T04:51:52.493Z,1006.38
2018-12-10T04:52:52.473Z,1006.41
2018-12-10T04:53:52.450Z,1006.42
2018-12-10T04:54:52.431Z,1006.48
2018-12-10T04:55:52.406Z,1006.58
2018-12-10T04:56:52.388Z,1006.47
2018-12-10T04:57:52.364Z,1006.54
2018-12-10T04:58:52.344Z,1006.52
2018-12-10T04:59:52.880Z,1006.54
2018-12-10T05:00:52.299Z,1006.61
2018-12-10T05:01:52.278Z,1006.69
2018-12-10T05:02:52.259Z,1006.63
2018-12-10T05:03:52.237Z,1006.70
2018-12-10T05:04:52.221Z,1006.69
2018-12-10T05:05:52.195Z,1006.73
2018-12-10T05:06:52.173Z,1006.71
2018-12-10T05:07:52.156Z,1006.76
2018-12-10T05:08:52.130Z,1006.73
2018-12-10T05:09:52.111Z,1006.72
2018-12-10T05:10:52.087Z,1006.74
2018-12-10T05:11:52.065Z,1006.75
2018-12-10T05:12:52.058Z,1006.82
2018-12-10T05:13:52.026Z,1006.84
2018-12-10T05:14:52.002Z,1006.84
2018-12-10T05:15:51.984Z,1006.85
2018-12-10T05:16:51.965Z,1006.85
2018-12-10T05:17:51.940Z,1006.91
2018-12-10T05:18:51.918Z,1006.86
2018-12-10T05:19:51.901Z,1006.90
2018-12-10T05:20:51.876Z,1006.95
2018-12-10T05:21:51.847Z,1006.98
2018-12-10T05:22:51.833Z,1006.99
2018-12-10T05:23:51.809Z,1007.04
2018-12-10T05:24:51.788Z,1007.00
2018-12-10T05:25:51.769Z,1006.97
2018-12-10T05:26:51.751Z,1007.00
2018-12-10T05:27:51.724Z,1006.99
2018-12-10T05:28:51.702Z,1007.02
2018-12-10T05:29:51.682Z,1007.03
2018-12-10T05:30:51.661Z,1007.03
2018-12-10T05:31:51.641Z,1007.03
2018-12-10T05:32:51.625Z,1006.99
2018-12-10T05:33:51.596Z,1007.01
2018-12-10T05:34:51.582Z,1006.91
2018-12-10T05:35:51.554Z,1006.93
2018-12-10T05:36:51.535Z,1006.97
2018-12-10T05:37:51.512Z,1006.96
2018-12-10T05:38:51.489Z,1006.98
2018-12-10T05:39:51.470Z,1006.96
2018-12-10T05:40:51.464Z,1006.98
2018-12-10T05:41:51.427Z,1007.02
2018-12-10T05:42:51.406Z,1007.01
2018-12-10T05:43:51.386Z,1007.02
2018-12-10T05:44:51.364Z,1007.12
2018-12-10T05:45:51.350Z,1007.07
2018-12-10T05:46:51.321Z,1007.15
2018-12-10T05:47:51.299Z,1007.17
2018-12-10T05:48:51.278Z,1007.17
2018-12-10T05:49:51.264Z,1007.24
2018-12-10T05:50:51.236Z,1007.21
2018-12-10T05:51:51.212Z,1007.24
2018-12-10T05:52:51.196Z,1007.21
2018-12-10T05:53:51.170Z,1007.15
2018-12-10T05:54:51.152Z,1007.23
2018-12-10T05:55:51.127Z,1007.18
2018-12-10T05:56:51.109Z,1007.22
2018-12-10T05:57:51.084Z,1007.18
2018-12-10T05:58:51.059Z,1007.19
2018-12-10T05:59:51.045Z,1007.21
2018-12-10T06:00:51.020Z,1007.24
2018-12-10T06:01:51.000Z,1007.24
2018-12-10T06:02:50.976Z,1007.29
2018-12-10T06:03:50.961Z,1007.25
2018-12-10T06:04:50.935Z,1007.27
2018-12-10T06:05:50.913Z,1007.35
2018-12-10T06:06:50.894Z,1007.35
2018-12-10T06:07:50.870Z,1007.31
2018-12-10T06:08:50.851Z,1007.33
2018-12-10T06:09:51.283Z,1007.31
2018-12-10T06:10:50.809Z,1007.31
2018-12-10T06:11:50.785Z,1007.34
2018-12-10T06:12:50.765Z,1007.32
2018-12-10T06:13:50.741Z,1007.39
2018-12-10T06:14:50.720Z,1007.34
2018-12-10T06:15:50.701Z,1007.34
2018-12-10T06:16:50.678Z,1007.42
2018-12-10T06:17:50.657Z,1007.39
2018-12-10T06:18:50.640Z,1007.40
2018-12-10T06:19:50.619Z,1007.43
2018-12-10T06:20:50.595Z,1007.48
2018-12-10T06:21:50.570Z,1007.47
2018-12-10T06:22:50.556Z,1007.47
2018-12-10T06:23:50.527Z,1007.49
2018-12-10T06:24:50.506Z,1007.49
2018-12-10T06:25:50.488Z,1007.45
2018-12-10T06:26:50.509Z,1007.47
2018-12-10T06:27:50.443Z,1007.47
2018-12-10T06:28:50.457Z,1007.52
2018-12-10T06:29:50.401Z,1007.53
2018-12-10T06:30:50.379Z,1007.52
2018-12-10T06:31:50.361Z,1007.53
2018-12-10T06:32:50.335Z,1007.52
2018-12-10T06:33:50.314Z,1007.47
2018-12-10T06:34:50.295Z,1007.45
2018-12-10T06:35:50.273Z,1007.46
2018-12-10T06:36:50.251Z,1007.47
2018-12-10T06:37:50.229Z,1007.49
2018-12-10T06:38:50.209Z,1007.47
2018-12-10T06:39:50.188Z,1007.54
2018-12-10T06:40:50.166Z,1007.52
2018-12-10T06:41:50.145Z,1007.51
2018-12-10T06:42:50.123Z,1007.55
2018-12-10T06:43:50.101Z,1007.53
2018-12-10T06:44:50.083Z,1007.52
2018-12-10T06:45:50.061Z,1007.55
2018-12-10T06:46:50.038Z,1007.59
2018-12-10T06:47:50.021Z,1007.57
2018-12-10T06:48:49.998Z,1007.60
2018-12-10T06:49:49.979Z,1007.57
2018-12-10T06:50:49.953Z,1007.62
2018-12-10T06:51:49.930Z,1007.64
2018-12-10T06:52:49.907Z,1007.65
2018-12-10T06:53:49.888Z,1007.65
2018-12-10T06:54:49.874Z,1007.66
2018-12-10T06:55:49.847Z,1007.64
2018-12-10T06:56:49.826Z,1007.66
2018-12-10T06:57:49.814Z,1007.72
2018-12-10T06:58:49.782Z,1007.68
2018-12-10T06:59:49.764Z,1007.67
2018-12-10T07:00:49.740Z,1007.71
2018-12-10T07:01:49.718Z,1007.72
2018-12-10T07:02:49.697Z,1007.85
2018-12-10T07:03:49.673Z,1007.77
2018-12-10T07:04:49.656Z,1007.72
2018-12-10T07:05:49.635Z,1007.78
2018-12-10T07:06:49.611Z,1007.83
2018-12-10T07:07:49.593Z,1007.83
2018-12-10T07:08:49.570Z,1007.86
2018-12-10T07:09:49.547Z,1007.86
2018-12-10T07:10:49.534Z,1007.82
2018-12-10T07:11:49.504Z,1007.82
2018-12-10T07:12:49.483Z,1007.84
2018-12-10T07:13:49.459Z,1007.87
2018-12-10T07:14:49.440Z,1007.87
2018-12-10T07:15:49.419Z,1007.84
2018-12-10T07:16:49.412Z,1007.91
2018-12-10T07:17:49.385Z,1007.89
2018-12-10T07:18:49.354Z,1007.86
2018-12-10T07:19:49.340Z,1007.92
2018-12-10T07:20:49.315Z,1007.95
2018-12-10T07:21:49.289Z,1007.97
2018-12-10T07:22:49.350Z,1007.90
2018-12-10T07:23:49.248Z,1007.96
2018-12-10T07:24:49.227Z,1007.97
2018-12-10T07:25:49.205Z,1007.95
2018-12-10T07:26:49.183Z,1007.93
2018-12-10T07:27:49.161Z,1007.99
2018-12-10T07:28:49.142Z,1008.06
2018-12-10T07:29:49.118Z,1008.11
2018-12-10T07:30:49.095Z,1008.04
2018-12-10T07:31:49.082Z,1008.03
2018-12-10T07:32:49.060Z,1008.07
2018-12-10T07:33:49.032Z,1008.10
2018-12-10T07:34:49.011Z,1008.12
2018-12-10T07:35:48.992Z,1008.11
2018-12-10T07:36:48.973Z,1008.09
2018-12-10T07:37:48.942Z,1008.15
2018-12-10T07:38:48.928Z,1008.16
2018-12-10T07:39:48.904Z,1008.15
2018-12-10T07:40:48.885Z,1008.14
2018-12-10T07:41:48.863Z,1008.18
2018-12-10T07:42:48.846Z,1008.17
2018-12-10T07:43:48.886Z,1008.13
2018-12-10T07:44:49.025Z,1008.19
2018-12-10T07:45:48.780Z,1008.18
2018-12-10T07:46:48.760Z,1008.21
2018-12-10T07:47:48.735Z,1008.18
2018-12-10T07:48:48.718Z,1008.22
2018-12-10T07:49:48.695Z,1008.23
2018-12-10T07:50:48.675Z,1008.28
2018-12-10T07:51:48.651Z,1008.19
2018-12-10T07:52:48.630Z,1008.24
2018-12-10T07:53:48.608Z,1008.25
2018-12-10T07:54:48.588Z,1008.29
2018-12-10T07:55:48.568Z,1008.27
2018-12-10T07:56:48.543Z,1008.33
2018-12-10T07:57:48.529Z,1008.34
2018-12-10T07:58:48.503Z,1008.30
2018-12-10T07:59:48.482Z,1008.34
2018-12-10T08:00:48.455Z,1008.39
2018-12-10T08:01:48.437Z,1008.30
2018-12-10T08:02:48.416Z,1008.43
2018-12-10T08:03:48.395Z,1008.38
2018-12-10T08:04:48.383Z,1008.36
2018-12-10T08:05:48.355Z,1008.41
2018-12-10T08:06:48.329Z,1008.37
2018-12-10T08:07:48.312Z,1008.46
2018-12-10T08:08:50.271Z,1008.45
2018-12-10T08:09:48.270Z,1008.46
2018-12-10T08:10:48.248Z,1008.45
2018-12-10T08:11:48.226Z,1008.50
2018-12-10T08:12:48.205Z,1008.46
2018-12-10T08:13:48.183Z,1008.50
2018-12-10T08:14:48.163Z,1008.51
2018-12-10T08:15:48.141Z,1008.62
2018-12-10T08:16:48.123Z,1008.46
2018-12-10T08:17:48.098Z,1008.52
2018-12-10T08:18:48.077Z,1008.49
2018-12-10T08:19:48.061Z,1008.53
2018-12-10T08:20:48.038Z,1008.53
2018-12-10T08:21:48.017Z,1008.57
2018-12-10T08:22:47.994Z,1008.57
2018-12-10T08:23:47.972Z,1008.65
2018-12-10T08:24:47.989Z,1008.64
2018-12-10T08:25:47.937Z,1008.62
2018-12-10T08:26:47.909Z,1008.64
2018-12-10T08:27:47.889Z,1008.72
2018-12-10T08:28:47.868Z,1008.74
2018-12-10T08:29:47.858Z,1008.76
2018-12-10T08:30:47.830Z,1008.76
2018-12-10T08:31:47.830Z,1008.76
2018-12-10T08:32:47.782Z,1008.81
2018-12-10T08:33:47.761Z,1008.84
2018-12-10T08:34:47.742Z,1008.80
2018-12-10T08:35:47.720Z,1008.74
2018-12-10T08:36:47.699Z,1008.75
2018-12-10T08:37:47.680Z,1008.76
2018-12-10T08:38:47.659Z,1008.79
2018-12-10T08:39:47.638Z,1008.74
2018-12-10T08:40:47.725Z,1008.72
2018-12-10T08:41:47.596Z,1008.73
2018-12-10T08:42:47.573Z,1008.76
2018-12-10T08:43:47.554Z,1008.71
2018-12-10T08:44:47.537Z,1008.72
2018-12-10T08:45:47.516Z,1008.70
2018-12-10T08:46:47.495Z,1008.69
2018-12-10T08:47:47.469Z,1008.65
2018-12-10T08:48:47.450Z,1008.72
2018-12-10T08:49:47.431Z,1008.68
2018-12-10T08:50:47.411Z,1008.66
2018-12-10T08:51:47.389Z,1008.72
2018-12-10T08:52:47.367Z,1008.71
2018-12-10T08:53:47.359Z,1008.70
2018-12-10T08:54:47.326Z,1008.78
2018-12-10T08:55:47.311Z,1008.83
2018-12-10T08:56:47.283Z,1008.82
2018-12-10T08:57:47.375Z,1008.83
2018-12-10T08:58:47.241Z,1008.90
2018-12-10T08:59:47.223Z,1008.91
2018-12-10T09:00:47.201Z,1008.93
2018-12-10T09:01:47.179Z,1009.02
2018-12-10T09:02:47.161Z,1009.01
2018-12-10T09:03:47.138Z,1008.98
2018-12-10T09:04:47.129Z,1009.01
2018-12-10T09:05:47.197Z,1009.01
2018-12-10T09:06:47.081Z,1009.04
2018-12-10T09:07:47.065Z,1009.13
2018-12-10T09:08:47.085Z,1009.08
2018-12-10T09:09:47.066Z,1009.09
2018-12-10T09:10:47.094Z,1009.10
2018-12-10T09:11:47.043Z,1009.10
2018-12-10T09:12:47.559Z,1009.08
2018-12-10T09:13:46.938Z,1009.03
2018-12-10T09:14:47.037Z,1009.09
2018-12-10T09:15:46.893Z,1009.15
2018-12-10T09:16:47.070Z,1009.14
2018-12-10T09:17:47.068Z,1009.17
2018-12-10T09:18:47.035Z,1009.18
2018-12-10T09:19:47.060Z,1009.20
2018-12-10T09:20:46.794Z,1009.14
2018-12-10T09:21:46.771Z,1009.12
2018-12-10T09:22:46.755Z,1009.15
2018-12-10T09:23:46.733Z,1009.13
2018-12-10T09:24:46.709Z,1009.22
2018-12-10T09:25:46.688Z,1009.19
2018-12-10T09:26:46.672Z,1009.24
2018-12-10T09:27:46.652Z,1009.21
2018-12-10T09:28:46.635Z,1009.24
2018-12-10T09:29:46.611Z,1009.25
2018-12-10T09:30:46.586Z,1009.24
2018-12-10T09:31:46.566Z,1009.22
2018-12-10T09:32:46.547Z,1009.24
2018-12-10T09:33:46.529Z,1009.19
2018-12-10T09:34:46.510Z,1009.21
2018-12-10T09:35:46.485Z,1009.22
2018-12-10T09:36:46.464Z,1009.25
2018-12-10T09:37:46.443Z,1009.25
2018-12-10T09:38:46.459Z,1009.26
2018-12-10T09:39:46.405Z,1009.23
2018-12-10T09:40:46.392Z,1009.27
2018-12-10T09:41:46.363Z,1009.24
2018-12-10T09:42:46.346Z,1009.26
2018-12-10T09:43:46.323Z,1009.22
2018-12-10T09:44:46.305Z,1009.28
2018-12-10T09:45:46.282Z,1009.27
2018-12-10T09:46:46.287Z,1009.35
2018-12-10T09:47:46.249Z,1009.30
2018-12-10T09:48:46.221Z,1009.32
2018-12-10T09:49:46.201Z,1009.29
2018-12-10T09:50:46.187Z,1009.25
2018-12-10T09:51:46.164Z,1009.25
2018-12-10T09:52:46.142Z,1009.24
2018-12-10T09:53:46.157Z,1009.25
2018-12-10T09:54:46.177Z,1009.21
2018-12-10T09:55:46.079Z,1009.25
2018-12-10T09:56:46.059Z,1009.15
2018-12-10T09:57:46.038Z,1009.15
2018-12-10T09:58:46.016Z,1009.20
2018-12-10T09:59:45.997Z,1009.10
2018-12-10T10:00:45.977Z,1009.11
2018-12-10T10:01:45.960Z,1009.19
2018-12-10T10:02:45.939Z,1009.15
2018-12-10T10:03:45.916Z,1009.24
2018-12-10T10:04:45.979Z,1009.13
2018-12-10T10:05:45.889Z,1009.17
2018-12-10T10:06:45.856Z,1009.14
2018-12-10T10:07:45.836Z,1009.16
2018-12-10T10:08:45.815Z,1009.14
2018-12-10T10:09:45.795Z,1009.12
2018-12-10T10:10:45.782Z,1009.17
2018-12-10T10:11:45.754Z,1009.15
2018-12-10T10:12:45.799Z,1009.16
2018-12-10T10:13:45.715Z,1009.11
2018-12-10T10:14:45.694Z,1009.21
2018-12-10T10:15:45.675Z,1009.20
2018-12-10T10:16:45.659Z,1009.20
2018-12-10T10:17:45.634Z,1009.28
2018-12-10T10:18:45.616Z,1009.25
2018-12-10T10:19:45.603Z,1009.25
2018-12-10T10:20:45.585Z,1009.24
2018-12-10T10:21:45.554Z,1009.23
2018-12-10T10:22:45.540Z,1009.21
2018-12-10T10:23:45.519Z,1009.28
2018-12-10T10:24:45.507Z,1009.19
2018-12-10T10:25:45.483Z,1009.16
2018-12-10T10:26:45.461Z,1009.21
2018-12-10T10:27:45.445Z,1009.26
2018-12-10T10:28:45.435Z,1009.22
2018-12-10T10:29:45.406Z,1009.24
2018-12-10T10:30:45.382Z,1009.21
2018-12-10T10:31:45.365Z,1009.29
2018-12-10T10:32:45.344Z,1009.28
2018-12-10T10:33:45.322Z,1009.25
2018-12-10T10:34:45.302Z,1009.18
2018-12-10T10:35:45.339Z,1009.24
2018-12-10T10:36:45.267Z,1009.25
2018-12-10T10:37:45.248Z,1009.32
2018-12-10T10:38:45.233Z,1009.26
2018-12-10T10:39:45.209Z,1009.34
2018-12-10T10:40:45.197Z,1009.35
2018-12-10T10:41:45.171Z,1009.33
2018-12-10T10:42:45.147Z,1009.32
2018-12-10T10:43:45.149Z,1009.29
2018-12-10T10:44:45.126Z,1009.29
2018-12-10T10:45:45.086Z,1009.34
2018-12-10T10:46:45.065Z,1009.30
2018-12-10T10:47:45.053Z,1009.32
2018-12-10T10:48:45.030Z,1009.30
2018-12-10T10:49:45.021Z,1009.27
2018-12-10T10:50:44.991Z,1009.26
2018-12-10T10:51:44.973Z,1009.24
2018-12-10T10:52:44.954Z,1009.25
2018-12-10T10:53:44.932Z,1009.18
2018-12-10T10:54:44.918Z,1009.23
2018-12-10T10:55:44.898Z,1009.26
2018-12-10T10:56:44.880Z,1009.19
2018-12-10T10:57:44.861Z,1009.17
2018-12-10T10:58:44.837Z,1009.18
2018-12-10T10:59:44.820Z,1009.20
2018-12-10T11:00:44.799Z,1009.20
2018-12-10T11:01:44.818Z,1009.22
2018-12-10T11:02:46.455Z,1009.21
2018-12-10T11:03:44.749Z,1009.19
2018-12-10T11:04:44.726Z,1009.26
2018-12-10T11:05:44.709Z,1009.30
2018-12-10T11:06:44.680Z,1009.27
2018-12-10T11:07:44.661Z,1009.22
2018-12-10T11:08:44.644Z,1009.24
2018-12-10T11:09:44.621Z,1009.23
2018-12-10T11:10:44.644Z,1009.22
2018-12-10T11:11:44.593Z,1009.24
2018-12-10T11:12:44.562Z,1009.25
2018-12-10T11:13:44.546Z,1009.26
2018-12-10T11:14:44.520Z,1009.23
2018-12-10T11:15:44.500Z,1009.26
2018-12-10T11:16:44.496Z,1009.28
2018-12-10T11:17:44.464Z,1009.24
2018-12-10T11:18:44.450Z,1009.17
2018-12-10T11:19:44.441Z,1009.07
2018-12-10T11:20:44.412Z,1009.09
2018-12-10T11:21:44.380Z,1009.16
2018-12-10T11:22:44.561Z,1009.14
2018-12-10T11:23:44.347Z,1009.08
2018-12-10T11:24:44.329Z,1009.12
2018-12-10T11:25:44.304Z,1009.10
2018-12-10T11:26:44.289Z,1009.09
2018-12-10T11:27:44.265Z,1009.07
2018-12-10T11:28:44.251Z,1009.11
2018-12-10T11:29:44.231Z,1009.11
2018-12-10T11:30:44.214Z,1009.08
2018-12-10T11:31:44.186Z,1009.15
2018-12-10T11:32:44.170Z,1009.13
2018-12-10T11:33:44.144Z,1009.15
2018-12-10T11:34:44.124Z,1009.14
2018-12-10T11:35:44.116Z,1009.23
2018-12-10T11:36:44.086Z,1009.14
2018-12-10T11:37:44.072Z,1009.13
2018-12-10T11:38:44.051Z,1009.19
2018-12-10T11:39:44.033Z,1009.16
2018-12-10T11:40:44.009Z,1009.20
2018-12-10T11:41:43.992Z,1009.18
2018-12-10T11:42:43.968Z,1009.16
2018-12-10T11:43:43.955Z,1009.27
2018-12-10T11:44:43.929Z,1009.40
2018-12-10T11:45:43.909Z,1009.24
2018-12-10T11:46:43.891Z,1009.51
2018-12-10T11:47:45.823Z,1009.21
2018-12-10T11:48:43.852Z,1009.27
2018-12-10T11:49:43.830Z,1009.15
2018-12-10T11:50:43.912Z,1009.26
2018-12-10T11:51:43.794Z,1009.12
2018-12-10T11:52:43.771Z,1009.17
2018-12-10T11:53:43.754Z,1009.22
2018-12-10T11:54:43.736Z,1009.19
2018-12-10T11:55:43.713Z,1009.17
2018-12-10T11:56:43.695Z,1009.18
2018-12-10T11:57:43.665Z,1009.19
2018-12-10T11:58:43.655Z,1009.13
2018-12-10T11:59:43.633Z,1009.17
2018-12-10T12:00:43.613Z,1009.18
2018-12-10T12:01:43.584Z,1009.16
2018-12-10T12:02:43.576Z,1009.06
2018-12-10T12:03:43.551Z,1009.09
2018-12-10T12:04:43.537Z,1009.10
2018-12-10T12:05:43.511Z,1009.08